createdAt,value
2022-11-14T00:01:13.707Z,16.17
2022-11-14T00:03:40.636Z,10.87
2022-11-14T00:06:08.668Z,17.70
2022-11-14T00:08:36.387Z,13.37
2022-11-14T00:11:04.136Z,13.97
2022-11-14T00:13:31.067Z,15.33
2022-11-14T00:15:58.015Z,14.20
2022-11-14T00:18:24.880Z,14.97
2022-11-14T00:20:53.951Z,14.10
2022-11-14T00:23:22.287Z,14.10
2022-11-14T00:25:49.478Z,14.40
2022-11-14T00:28:16.439Z,13.87
2022-11-14T00:30:48.994Z,13.97
2022-11-14T00:33:20.276Z,13.27
2022-11-14T00:35:56.682Z,16.90
2022-11-14T00:38:24.155Z,15.40
2022-11-14T00:40:51.236Z,15.77
2022-11-14T00:43:18.634Z,16.00
2022-11-14T00:45:47.407Z,17.33
2022-11-14T00:48:15.939Z,13.40
2022-11-14T00:50:43.706Z,16.53
2022-11-14T00:53:10.979Z,17.43
2022-11-14T00:55:37.926Z,19.13
2022-11-14T00:58:04.924Z,17.80
2022-11-14T01:00:31.862Z,15.37
2022-11-14T01:02:58.896Z,15.13
2022-11-14T01:05:26.835Z,15.87
2022-11-14T01:07:54.461Z,13.60
2022-11-14T01:10:21.976Z,14.47
2022-11-14T01:12:49.192Z,13.13
2022-11-14T01:15:16.209Z,15.07
2022-11-14T01:17:43.211Z,16.30
2022-11-14T01:20:10.251Z,17.63
2022-11-14T01:22:37.084Z,20.30
2022-11-14T01:25:04.349Z,17.30
2022-11-14T01:27:32.023Z,16.50
2022-11-14T01:29:59.035Z,18.80
2022-11-14T01:32:27.275Z,17.67
2022-11-14T01:34:54.196Z,18.47
2022-11-14T01:37:22.040Z,15.37
2022-11-14T01:39:49.089Z,15.90
2022-11-14T01:42:17.579Z,15.40
2022-11-14T01:44:52.438Z,17.60
2022-11-14T01:47:31.980Z,15.27
2022-11-14T01:50:05.734Z,15.83
2022-11-14T01:52:40.577Z,15.70
2022-11-14T01:55:10.487Z,15.97
2022-11-14T01:57:47.001Z,14.63
2022-11-14T02:00:14.997Z,19.13
2022-11-14T02:02:43.815Z,17.67
2022-11-14T02:05:17.468Z,13.77
2022-11-14T02:07:44.660Z,19.10
2022-11-14T02:10:21.111Z,15.20
2022-11-14T02:12:51.388Z,16.87
2022-11-14T02:15:18.590Z,13.33
2022-11-14T02:17:45.515Z,13.20
2022-11-14T02:20:12.509Z,14.30
2022-11-14T02:22:42.348Z,19.73
2022-11-14T02:25:16.405Z,15.20
2022-11-14T02:27:44.139Z,15.20
2022-11-14T02:30:21.175Z,15.07
2022-11-14T02:33:10.068Z,13.37
2022-11-14T02:35:35.012Z,15.17
2022-11-14T02:38:01.881Z,14.53
2022-11-14T02:40:28.716Z,15.03
2022-11-14T02:42:55.630Z,15.53
2022-11-14T02:45:23.068Z,15.90
2022-11-14T02:47:50.101Z,15.93
2022-11-14T02:50:17.679Z,12.43
2022-11-14T02:52:44.565Z,15.93
2022-11-14T02:55:11.573Z,11.37
2022-11-14T02:57:38.482Z,12.47
2022-11-14T03:00:13.298Z,11.40
2022-11-14T03:02:41.832Z,13.27
2022-11-14T03:05:09.185Z,15.50
2022-11-14T03:07:36.045Z,13.00
2022-11-14T03:10:03.814Z,12.93
2022-11-14T03:12:31.227Z,13.53
2022-11-14T03:14:58.092Z,12.13
2022-11-14T03:17:24.937Z,10.30
2022-11-14T03:19:51.790Z,12.97
2022-11-14T03:22:18.711Z,11.10
2022-11-14T03:24:45.550Z,10.93
2022-11-14T03:27:12.449Z,10.90
2022-11-14T03:29:39.508Z,12.80
2022-11-14T03:32:06.382Z,12.77
2022-11-14T03:34:33.556Z,13.10
2022-11-14T03:37:01.067Z,13.30
2022-11-14T03:39:28.175Z,15.63
2022-11-14T03:41:55.051Z,15.77
2022-11-14T03:44:22.114Z,16.43
2022-11-14T03:46:49.019Z,12.87
2022-11-14T03:49:15.871Z,13.37
2022-11-14T03:51:42.705Z,15.97
2022-11-14T03:54:10.067Z,14.30
2022-11-14T03:56:36.927Z,14.33
2022-11-14T03:59:03.888Z,12.27
2022-11-14T04:01:30.799Z,12.27
2022-11-14T04:03:57.691Z,13.27
2022-11-14T04:06:24.556Z,12.33
2022-11-14T04:08:51.840Z,16.93
2022-11-14T04:11:19.725Z,12.77
2022-11-14T04:13:46.616Z,16.73
2022-11-14T04:16:13.460Z,16.20
2022-11-14T04:18:40.424Z,16.80
2022-11-14T04:21:07.412Z,13.53
2022-11-14T04:23:34.264Z,14.87
2022-11-14T04:26:01.716Z,14.90
2022-11-14T04:28:28.816Z,13.10
2022-11-14T04:30:55.887Z,15.33
2022-11-14T04:33:22.744Z,23.67
2022-11-14T04:35:49.600Z,19.50
2022-11-14T04:38:16.517Z,19.80
2022-11-14T04:40:54.365Z,20.20
2022-11-14T04:43:21.730Z,18.17
2022-11-14T04:45:48.676Z,22.30
2022-11-14T04:48:15.794Z,18.70
2022-11-14T04:50:42.704Z,19.30
2022-11-14T04:53:09.616Z,18.67
2022-11-14T04:55:36.550Z,20.20
2022-11-14T04:58:03.657Z,21.03
2022-11-14T05:00:30.489Z,21.00
2022-11-14T05:03:00.057Z,22.13
2022-11-14T05:05:27.060Z,18.17
2022-11-14T05:07:55.093Z,19.90
2022-11-14T05:10:21.977Z,18.03
2022-11-14T05:12:48.849Z,18.10
2022-11-14T05:15:15.833Z,16.87
2022-11-14T05:17:42.685Z,12.97
2022-11-14T05:20:10.890Z,14.20
2022-11-14T05:22:37.897Z,15.90
2022-11-14T05:25:06.825Z,12.83
2022-11-14T05:27:33.689Z,17.97
2022-11-14T05:30:00.613Z,15.90
2022-11-14T05:32:27.496Z,14.75
2022-11-14T05:34:54.335Z,15.57
2022-11-14T05:37:21.195Z,11.00
2022-11-14T05:39:48.083Z,13.95
2022-11-14T05:42:15.096Z,15.05
2022-11-14T05:44:42.331Z,16.40
2022-11-14T05:47:09.258Z,14.80
2022-11-14T05:49:36.119Z,9.75
2022-11-14T05:52:03.043Z,11.85
2022-11-14T05:54:29.979Z,14.18
2022-11-14T05:56:56.898Z,12.18
2022-11-14T05:59:23.786Z,12.55
2022-11-14T06:01:50.751Z,11.55
2022-11-14T06:04:17.763Z,13.63
2022-11-14T06:06:44.846Z,11.38
2022-11-14T06:09:11.755Z,11.15
2022-11-14T06:11:38.615Z,16.92
2022-11-14T06:14:10.424Z,12.85
2022-11-14T06:16:39.048Z,17.20
2022-11-14T06:19:05.937Z,13.82
2022-11-14T06:21:32.844Z,12.55
2022-11-14T06:23:59.789Z,11.18
2022-11-14T06:26:31.413Z,14.38
2022-11-14T06:29:00.077Z,13.77
2022-11-14T06:31:27.757Z,15.35
2022-11-14T06:33:55.013Z,14.88
2022-11-14T06:36:22.638Z,12.40
2022-11-14T06:38:49.750Z,15.50
2022-11-14T06:41:21.013Z,12.55
2022-11-14T06:43:52.848Z,15.43
2022-11-14T06:46:22.564Z,12.98
2022-11-14T06:48:52.361Z,12.20
2022-11-14T06:51:19.757Z,12.73
2022-11-14T06:53:46.738Z,16.70
2022-11-14T06:56:18.370Z,17.23
2022-11-14T06:58:50.475Z,18.90
2022-11-14T07:01:22.715Z,19.63
2022-11-14T07:03:50.228Z,24.63
2022-11-14T07:06:25.220Z,25.93
2022-11-14T07:08:54.400Z,26.90
2022-11-14T07:11:27.660Z,26.60
2022-11-14T07:14:01.261Z,28.20
2022-11-14T07:16:32.288Z,20.37
2022-11-14T07:19:01.306Z,14.40
2022-11-14T07:21:31.200Z,15.80
2022-11-14T07:23:58.662Z,13.00
2022-11-14T07:26:26.132Z,14.50
2022-11-14T07:28:56.681Z,15.50
2022-11-14T07:31:26.173Z,17.80
2022-11-14T07:33:53.079Z,14.37
2022-11-14T07:36:19.916Z,14.67
2022-11-14T07:38:46.779Z,11.37
2022-11-14T07:41:16.589Z,14.63
2022-11-14T07:43:44.394Z,9.80
2022-11-14T07:46:18.310Z,11.00
2022-11-14T07:48:45.929Z,10.90
2022-11-14T07:51:20.186Z,12.00
2022-11-14T07:53:47.052Z,9.90
2022-11-14T07:56:14.448Z,10.17
2022-11-14T07:58:42.297Z,11.50
2022-11-14T08:01:14.376Z,9.23
2022-11-14T08:03:45.662Z,10.30
2022-11-14T08:06:16.686Z,10.67
2022-11-14T08:08:43.805Z,10.80
2022-11-14T08:11:11.309Z,11.30
2022-11-14T08:13:38.246Z,9.30
2022-11-14T08:16:13.249Z,10.70
2022-11-14T08:18:41.694Z,10.30
2022-11-14T08:21:08.923Z,11.57
2022-11-14T08:23:35.967Z,11.50
2022-11-14T08:26:03.325Z,9.70
2022-11-14T08:28:30.603Z,10.77
2022-11-14T08:31:03.531Z,10.20
2022-11-14T08:33:31.860Z,10.57
2022-11-14T08:36:04.051Z,8.90
2022-11-14T08:38:34.016Z,8.93
2022-11-14T08:41:02.995Z,8.63
2022-11-14T08:43:32.357Z,8.10
2022-11-14T08:46:02.318Z,8.70
2022-11-14T08:48:31.756Z,10.33
2022-11-14T08:51:06.006Z,8.50
2022-11-14T08:53:34.570Z,8.80
2022-11-14T08:56:01.779Z,7.43
2022-11-14T08:58:33.341Z,8.13
2022-11-14T09:03:58.322Z,10.40
2022-11-14T09:06:26.713Z,7.53
2022-11-14T09:08:53.665Z,7.67
2022-11-14T09:11:20.730Z,8.43
2022-11-14T09:13:47.672Z,8.10
2022-11-14T09:16:14.526Z,8.10
2022-11-14T09:18:41.509Z,8.17
2022-11-14T09:21:10.715Z,8.90
2022-11-14T09:23:37.699Z,10.43
2022-11-14T09:26:08.583Z,9.93
2022-11-14T09:28:37.028Z,9.53
2022-11-14T09:31:12.643Z,10.80
2022-11-14T09:33:40.121Z,7.93
2022-11-14T09:36:15.656Z,7.67
2022-11-14T09:38:46.071Z,7.73
2022-11-14T09:41:46.301Z,12.80
2022-11-14T09:45:07.163Z,7.27
2022-11-14T09:47:46.427Z,7.00
2022-11-14T09:50:25.921Z,7.40
2022-11-14T09:52:59.195Z,7.63
2022-11-14T09:55:36.964Z,7.00
2022-11-14T09:58:11.637Z,7.57
2022-11-14T10:00:54.423Z,8.33
2022-11-14T10:03:58.591Z,6.30
2022-11-14T10:06:54.814Z,7.63
2022-11-14T10:10:08.105Z,7.33
2022-11-14T10:13:13.404Z,7.97
2022-11-14T10:16:25.542Z,6.00
2022-11-14T10:19:12.472Z,6.60
2022-11-14T10:22:18.235Z,9.70
2022-11-14T10:25:23.746Z,6.60
2022-11-14T10:28:25.068Z,10.03
2022-11-14T10:31:20.088Z,7.33
2022-11-14T10:34:27.947Z,7.87
2022-11-14T10:37:25.001Z,5.87
2022-11-14T10:40:01.484Z,7.10
2022-11-14T10:42:43.013Z,8.73
2022-11-14T10:45:37.086Z,10.37
2022-11-14T10:48:32.830Z,6.10
2022-11-14T10:51:37.204Z,6.83
2022-11-14T10:54:32.081Z,5.37
2022-11-14T10:56:59.566Z,6.23
2022-11-14T10:59:27.894Z,6.20
2022-11-14T11:01:58.544Z,6.40
2022-11-14T11:04:38.421Z,7.00
2022-11-14T11:07:08.103Z,5.70
2022-11-14T11:09:59.853Z,5.90
2022-11-14T11:12:50.807Z,5.30
2022-11-14T11:15:31.495Z,7.53
2022-11-14T11:18:22.349Z,5.20
2022-11-14T11:21:13.062Z,5.07
2022-11-14T11:23:57.538Z,5.23
2022-11-14T11:26:26.602Z,5.23
2022-11-14T11:29:11.126Z,7.73
2022-11-14T11:31:52.729Z,5.30
2022-11-14T11:34:36.642Z,5.93
2022-11-14T11:37:20.308Z,5.40
2022-11-14T11:39:59.799Z,5.03
2022-11-14T11:43:36.753Z,5.77
2022-11-14T11:45:48.497Z,4.60
2022-11-14T11:48:33.818Z,5.63
2022-11-14T11:51:04.689Z,4.63
2022-11-14T11:53:47.222Z,6.10
2022-11-14T11:56:24.833Z,5.40
2022-11-14T11:59:16.521Z,5.10
2022-11-14T12:01:43.628Z,5.97
2022-11-14T12:04:10.646Z,4.70
2022-11-14T12:07:14.610Z,5.80
2022-11-14T12:10:09.238Z,5.43
2022-11-14T12:12:42.560Z,5.40
2022-11-14T12:15:52.820Z,6.00
2022-11-14T12:18:51.426Z,5.17
2022-11-14T12:22:20.243Z,4.73
2022-11-14T12:25:48.966Z,5.67
2022-11-14T12:29:18.815Z,5.50
2022-11-14T12:32:04.059Z,6.50
2022-11-14T12:34:43.884Z,7.53
2022-11-14T12:37:42.535Z,9.33
2022-11-14T12:40:32.406Z,6.07
2022-11-14T12:43:02.251Z,6.27
2022-11-14T12:45:40.959Z,7.10
2022-11-14T12:48:26.149Z,6.10
2022-11-14T12:50:59.705Z,6.30
2022-11-14T12:53:35.857Z,5.90
2022-11-14T12:56:32.829Z,6.40
2022-11-14T12:59:58.121Z,5.53
2022-11-14T13:03:10.560Z,6.63
2022-11-14T13:05:55.235Z,13.00
2022-11-14T13:08:53.609Z,5.20
2022-11-14T13:12:08.520Z,5.67
2022-11-14T13:15:15.647Z,6.23
2022-11-14T13:18:01.828Z,6.07
2022-11-14T13:20:55.477Z,7.50
2022-11-14T13:23:28.584Z,5.10
2022-11-14T13:26:10.678Z,14.70
2022-11-14T13:28:37.470Z,4.83
2022-11-14T13:31:16.612Z,5.60
2022-11-14T13:34:00.295Z,5.57
2022-11-14T13:37:03.703Z,9.30
2022-11-14T13:39:48.892Z,5.10
2022-11-14T13:43:05.810Z,4.50
2022-11-14T13:46:00.529Z,4.50
2022-11-14T13:49:14.696Z,6.10
2022-11-14T13:51:44.385Z,5.10
2022-11-14T13:54:18.329Z,5.43
2022-11-14T13:57:38.237Z,7.23
2022-11-14T14:00:21.173Z,6.17
2022-11-14T14:03:22.717Z,5.40
2022-11-14T14:06:25.418Z,6.17
2022-11-14T14:09:30.074Z,5.57
2022-11-14T14:12:56.499Z,4.80
2022-11-14T14:16:07.075Z,5.37
2022-11-14T14:19:14.338Z,4.90
2022-11-14T14:22:34.552Z,4.90
2022-11-14T14:25:31.073Z,5.17
2022-11-14T14:29:06.076Z,6.80
2022-11-14T14:31:42.635Z,6.40
2022-11-14T14:34:31.504Z,4.33
2022-11-14T14:36:58.780Z,4.27
2022-11-14T14:39:29.819Z,5.57
2022-11-14T14:41:58.914Z,4.60
2022-11-14T14:44:39.939Z,3.60
2022-11-14T14:47:32.519Z,6.80
2022-11-14T14:50:15.644Z,5.00
2022-11-14T14:52:42.691Z,3.30
2022-11-14T14:55:32.549Z,3.63
2022-11-14T14:58:26.198Z,7.73
2022-11-14T15:01:01.938Z,4.60
2022-11-14T15:03:51.585Z,2.80
2022-11-14T15:06:30.396Z,3.47
2022-11-14T15:09:15.829Z,4.70
2022-11-14T15:11:49.856Z,3.40
2022-11-14T15:14:24.594Z,4.30
2022-11-14T15:16:53.990Z,3.40
2022-11-14T15:19:27.196Z,5.13
2022-11-14T15:22:25.861Z,3.87
2022-11-14T15:25:25.339Z,3.77
2022-11-14T15:27:55.551Z,3.70
2022-11-14T15:30:34.676Z,3.70
2022-11-14T15:33:25.675Z,4.03
2022-11-14T15:36:13.079Z,3.87
2022-11-14T15:38:44.643Z,3.80
2022-11-14T15:41:23.900Z,3.77
2022-11-14T15:43:55.098Z,4.93
2022-11-14T15:46:40.080Z,4.17
2022-11-14T15:49:25.933Z,3.53
2022-11-14T15:52:03.048Z,4.57
2022-11-14T15:54:36.396Z,3.50
2022-11-14T15:57:17.182Z,3.77
2022-11-14T15:59:44.255Z,4.47
2022-11-14T16:02:20.725Z,4.63
2022-11-14T16:04:50.800Z,3.00
2022-11-14T16:07:19.209Z,4.20
2022-11-14T16:09:46.837Z,3.93
2022-11-14T16:12:13.833Z,5.00
2022-11-14T16:14:41.846Z,5.33
2022-11-14T16:17:17.889Z,4.90
2022-11-14T16:19:45.442Z,4.20
2022-11-14T16:22:17.939Z,4.53
2022-11-14T16:24:44.952Z,3.87
2022-11-14T16:27:11.797Z,6.70
2022-11-14T16:29:38.652Z,5.93
2022-11-14T16:32:05.571Z,3.90
2022-11-14T16:34:32.426Z,3.87
2022-11-14T16:37:02.879Z,3.63
2022-11-14T16:39:30.571Z,4.70
2022-11-14T16:42:02.528Z,6.27
2022-11-14T16:44:30.282Z,4.00
2022-11-14T16:46:57.315Z,4.90
2022-11-14T16:49:24.653Z,5.20
2022-11-14T16:51:52.099Z,4.90
2022-11-14T16:54:20.300Z,4.80
2022-11-14T16:56:48.065Z,6.53
2022-11-14T16:59:15.536Z,7.97
2022-11-14T17:01:42.572Z,4.63
2022-11-14T17:04:09.537Z,6.53
2022-11-14T17:06:36.448Z,4.73
2022-11-14T17:09:03.535Z,5.60
2022-11-14T17:11:30.509Z,6.30
2022-11-14T17:13:57.749Z,6.73
2022-11-14T17:16:25.010Z,4.47
2022-11-14T17:18:55.785Z,6.00
2022-11-14T17:21:24.166Z,7.37
2022-11-14T17:24:02.937Z,6.73
2022-11-14T17:26:30.182Z,5.40
2022-11-14T17:28:57.626Z,5.93
2022-11-14T17:31:24.495Z,6.87
2022-11-14T17:33:55.145Z,8.60
2022-11-14T17:36:27.238Z,6.50
2022-11-14T17:38:55.382Z,8.27
2022-11-14T17:41:22.539Z,7.10
2022-11-14T17:43:56.527Z,6.70
2022-11-14T17:46:23.414Z,6.33
2022-11-14T17:48:50.313Z,5.57
2022-11-14T17:51:17.404Z,8.13
2022-11-14T17:53:44.570Z,7.43
2022-11-14T17:56:19.785Z,7.33
2022-11-14T17:58:48.527Z,8.40
2022-11-14T18:01:20.492Z,10.07
2022-11-14T18:03:48.198Z,8.40
2022-11-14T18:06:19.759Z,10.97
2022-11-14T18:08:48.209Z,9.17
2022-11-14T18:11:17.991Z,7.40
2022-11-14T18:13:45.141Z,7.30
2022-11-14T18:16:19.582Z,9.70
2022-11-14T18:18:46.484Z,10.40
2022-11-14T18:21:22.343Z,6.43
2022-11-14T18:23:56.403Z,8.13
2022-11-14T18:26:28.185Z,7.13
2022-11-14T18:29:03.077Z,7.40
2022-11-14T18:31:30.748Z,6.27
2022-11-14T18:33:58.101Z,6.30
2022-11-14T18:36:25.277Z,6.80
2022-11-14T18:38:52.128Z,8.17
2022-11-14T18:41:22.056Z,7.50
2022-11-14T18:43:53.203Z,7.80
2022-11-14T18:46:24.059Z,8.60
2022-11-14T18:48:59.879Z,8.40
2022-11-14T18:51:30.763Z,7.40
2022-11-14T18:53:59.213Z,8.57
2022-11-14T18:56:26.759Z,8.63
2022-11-14T18:58:56.747Z,10.40
2022-11-14T19:01:30.037Z,10.03
2022-11-14T19:04:10.813Z,7.80
2022-11-14T19:06:40.916Z,8.77
2022-11-14T19:09:13.632Z,8.17
2022-11-14T19:11:59.223Z,8.27
2022-11-14T19:14:26.334Z,8.40
2022-11-14T19:16:54.048Z,7.50
2022-11-14T19:19:21.304Z,8.53
2022-11-14T19:21:52.843Z,7.07
2022-11-14T19:24:19.669Z,6.37
2022-11-14T19:26:46.724Z,10.00
2022-11-14T19:29:13.680Z,7.90
2022-11-14T19:31:42.736Z,6.47
2022-11-14T19:34:10.115Z,8.07
2022-11-14T19:36:58.952Z,9.10
2022-11-14T19:39:24.688Z,7.83
2022-11-14T19:41:51.562Z,8.07
2022-11-14T19:44:18.393Z,7.37
2022-11-14T19:46:47.877Z,8.60
2022-11-14T19:49:15.249Z,7.90
2022-11-14T19:51:42.712Z,10.30
2022-11-14T19:54:11.097Z,7.13
2022-11-14T19:56:38.081Z,7.67
2022-11-14T19:59:09.583Z,8.17
2022-11-14T20:01:41.903Z,10.33
2022-11-14T20:04:13.178Z,7.77
2022-11-14T20:06:41.586Z,7.33
2022-11-14T20:09:11.057Z,9.27
2022-11-14T20:11:38.242Z,7.40
2022-11-14T20:14:06.389Z,7.03
2022-11-14T20:16:36.885Z,10.27
2022-11-14T20:19:04.833Z,7.93
2022-11-14T20:21:34.841Z,10.13
2022-11-14T20:24:02.148Z,9.80
2022-11-14T20:26:29.196Z,12.40
2022-11-14T20:28:56.271Z,8.27
2022-11-14T20:31:29.079Z,9.60
2022-11-14T20:33:56.782Z,8.17
2022-11-14T20:36:29.440Z,8.97
2022-11-14T20:39:06.132Z,6.57
2022-11-14T20:41:33.806Z,7.90
2022-11-14T20:44:03.342Z,7.83
2022-11-14T20:46:30.455Z,10.00
2022-11-14T20:48:57.350Z,8.03
2022-11-14T20:51:27.345Z,9.30
2022-11-14T20:53:55.926Z,7.27
2022-11-14T20:56:23.618Z,7.57
2022-11-14T20:58:54.522Z,7.83
2022-11-14T21:01:21.828Z,8.10
2022-11-14T21:03:49.152Z,7.73
2022-11-14T21:06:17.296Z,12.33
2022-11-14T21:08:44.598Z,9.00
2022-11-14T21:11:17.938Z,13.33
2022-11-14T21:13:58.390Z,8.90
2022-11-14T21:16:35.436Z,10.63
2022-11-14T21:19:04.628Z,7.83
2022-11-14T21:21:37.282Z,8.63
2022-11-14T21:24:06.462Z,8.43
2022-11-14T21:26:39.005Z,8.33
2022-11-14T21:29:12.519Z,11.30
2022-11-14T21:31:44.807Z,9.67
2022-11-14T21:34:15.532Z,10.13
2022-11-14T21:36:45.448Z,11.13
2022-11-14T21:39:15.915Z,8.70
2022-11-14T21:41:45.917Z,12.27
2022-11-14T21:44:19.300Z,9.83
2022-11-14T21:46:48.397Z,9.13
2022-11-14T21:49:15.598Z,8.83
2022-11-14T21:51:42.508Z,9.57
2022-11-14T21:54:09.743Z,11.40
2022-11-14T21:56:37.532Z,8.43
2022-11-14T21:59:15.777Z,11.37
2022-11-14T22:02:09.465Z,9.73
2022-11-14T22:04:37.509Z,9.10
2022-11-14T22:07:08.605Z,11.30
2022-11-14T22:09:38.706Z,13.30
2022-11-14T22:12:08.101Z,9.40
2022-11-14T22:14:34.934Z,9.90
2022-11-14T22:17:01.788Z,11.20
2022-11-14T22:19:28.640Z,8.37
2022-11-14T22:21:55.563Z,9.60
2022-11-14T22:24:23.672Z,10.43
2022-11-14T22:26:50.532Z,8.60
2022-11-14T22:29:17.465Z,8.63
2022-11-14T22:31:44.312Z,11.40
2022-11-14T22:34:12.271Z,10.00
2022-11-14T22:36:39.197Z,8.93
2022-11-14T22:39:06.066Z,8.30
2022-11-14T22:41:33.885Z,10.80
2022-11-14T22:44:01.779Z,9.37
2022-11-14T22:46:29.081Z,11.27
2022-11-14T22:48:56.580Z,10.53
2022-11-14T22:51:27.112Z,9.90
2022-11-14T22:53:58.233Z,11.53
2022-11-14T22:56:29.837Z,10.73
2022-11-14T22:59:00.274Z,9.40
2022-11-14T23:01:32.550Z,8.50
2022-11-14T23:04:04.963Z,10.40
2022-11-14T23:06:34.714Z,9.17
2022-11-14T23:09:03.543Z,8.50
2022-11-14T23:11:32.668Z,15.03
2022-11-14T23:14:01.256Z,10.00
2022-11-14T23:16:33.469Z,10.57
2022-11-14T23:19:04.841Z,11.23
2022-11-14T23:21:36.979Z,9.87
2022-11-14T23:24:12.986Z,16.37
2022-11-14T23:26:39.972Z,16.53
2022-11-14T23:29:06.838Z,9.77
2022-11-14T23:31:33.693Z,11.13
2022-11-14T23:34:00.650Z,10.20
2022-11-14T23:36:27.497Z,9.93
2022-11-14T23:38:54.749Z,11.60
2022-11-14T23:41:25.840Z,10.20
2022-11-14T23:43:52.951Z,11.00
2022-11-14T23:46:19.819Z,8.80
2022-11-14T23:48:46.887Z,12.23
2022-11-14T23:51:14.066Z,10.33
2022-11-14T23:53:41.796Z,11.17
2022-11-14T23:56:13.638Z,13.80
2022-11-14T23:58:41.523Z,9.57
